createdAt,value
2019-03-28T00:01:22.102Z,100.00
2019-03-28T00:03:51.148Z,100.00
2019-03-28T00:06:20.188Z,100.00
2019-03-28T00:08:49.144Z,100.00
2019-03-28T00:11:18.694Z,100.00
2019-03-28T00:13:47.602Z,100.00
2019-03-28T00:16:16.549Z,100.00
2019-03-28T00:18:45.502Z,100.00
2019-03-28T00:21:15.106Z,100.00
2019-03-28T00:24:03.604Z,100.00
2019-03-28T00:26:33.115Z,100.00
2019-03-28T00:29:02.650Z,100.00
2019-03-28T00:31:31.917Z,100.00
2019-03-28T00:34:00.786Z,100.00
2019-03-28T00:36:29.811Z,100.00
2019-03-28T00:38:59.151Z,100.00
2019-03-28T00:41:28.251Z,100.00
2019-03-28T00:43:57.763Z,100.00
2019-03-28T00:46:27.038Z,100.00
2019-03-28T00:48:55.948Z,100.00
2019-03-28T00:51:25.148Z,100.00
2019-03-28T00:53:54.278Z,100.00
2019-03-28T00:56:23.347Z,100.00
2019-03-28T00:58:52.317Z,100.00
2019-03-28T01:01:21.722Z,100.00
2019-03-28T01:03:51.324Z,100.00
2019-03-28T01:06:20.557Z,100.00
2019-03-28T01:08:51.004Z,100.00
2019-03-28T01:11:19.914Z,100.00
2019-03-28T01:13:50.061Z,100.00
2019-03-28T01:16:19.228Z,100.00
2019-03-28T01:18:48.251Z,100.00
2019-03-28T01:21:17.212Z,100.00
2019-03-28T01:23:46.291Z,100.00
2019-03-28T01:26:15.741Z,100.00
2019-03-28T01:28:44.651Z,100.00
2019-03-28T01:31:13.755Z,100.00
2019-03-28T01:33:43.150Z,100.00
2019-03-28T01:36:13.107Z,100.00
2019-03-28T01:38:42.116Z,100.00
2019-03-28T01:41:12.263Z,100.00
2019-03-28T01:43:41.171Z,100.00
2019-03-28T01:46:10.146Z,100.00
2019-03-28T01:48:39.099Z,100.00
2019-03-28T01:51:08.701Z,100.00
2019-03-28T01:53:38.168Z,100.00
2019-03-28T01:56:07.498Z,100.00
2019-03-28T01:58:36.494Z,100.00
2019-03-28T02:01:05.593Z,100.00
2019-03-28T02:03:34.855Z,100.00
2019-03-28T02:06:03.837Z,100.00
2019-03-28T02:08:33.631Z,100.00
2019-03-28T02:11:02.535Z,100.00
2019-03-28T02:13:32.859Z,100.00
2019-03-28T02:16:01.805Z,100.00
2019-03-28T02:18:31.153Z,100.00
2019-03-28T02:21:00.208Z,100.00
2019-03-28T02:23:29.508Z,100.00
2019-03-28T02:25:58.479Z,100.00
2019-03-28T02:28:27.494Z,100.00
2019-03-28T02:30:56.442Z,100.00
2019-03-28T02:33:25.998Z,100.00
2019-03-28T02:35:54.969Z,100.00
2019-03-28T02:38:24.505Z,100.00
2019-03-28T02:40:53.424Z,100.00
2019-03-28T02:43:22.458Z,100.00
2019-03-28T02:45:52.761Z,100.00
2019-03-28T02:48:21.839Z,100.00
2019-03-28T02:50:51.110Z,100.00
2019-03-28T02:53:20.060Z,100.00
2019-03-28T02:55:49.800Z,100.00
2019-03-28T02:58:19.092Z,100.00
2019-03-28T03:00:48.526Z,100.00
2019-03-28T03:03:17.971Z,100.00
2019-03-28T03:05:46.904Z,100.00
2019-03-28T03:08:15.815Z,100.00
2019-03-28T03:10:45.353Z,100.00
2019-03-28T03:13:14.288Z,100.00
2019-03-28T03:15:44.243Z,100.00
2019-03-28T03:18:13.496Z,100.00
2019-03-28T03:20:43.582Z,100.00
2019-03-28T03:23:12.967Z,100.00
2019-03-28T03:25:41.952Z,100.00
2019-03-28T03:28:10.922Z,100.00
2019-03-28T03:30:40.288Z,100.00
2019-03-28T03:33:09.595Z,100.00
2019-03-28T03:35:38.626Z,100.00
2019-03-28T03:38:07.559Z,100.00
2019-03-28T03:40:37.037Z,100.00
2019-03-28T03:43:05.984Z,100.00
2019-03-28T03:45:35.684Z,100.00
2019-03-28T03:48:05.001Z,100.00
2019-03-28T03:50:34.153Z,100.00
2019-03-28T03:53:03.674Z,100.00
2019-03-28T03:55:32.624Z,100.00
2019-03-28T03:58:14.337Z,100.00
2019-03-28T04:00:35.240Z,100.00
2019-03-28T04:03:04.605Z,100.00
2019-03-28T04:05:33.666Z,100.00
2019-03-28T04:08:02.815Z,100.00
2019-03-28T04:10:31.743Z,100.00
2019-03-28T04:13:00.673Z,100.00
2019-03-28T04:15:29.725Z,100.00
2019-03-28T04:17:59.971Z,100.00
2019-03-28T04:20:29.098Z,100.00
2019-03-28T04:22:58.341Z,100.00
2019-03-28T04:25:27.551Z,100.00
2019-03-28T04:27:56.776Z,100.00
2019-03-28T04:30:25.692Z,100.00
2019-03-28T04:32:54.569Z,100.00
2019-03-28T04:35:23.619Z,100.00
2019-03-28T04:37:52.649Z,100.00
2019-03-28T04:40:21.623Z,100.00
2019-03-28T04:42:50.664Z,100.00
2019-03-28T04:45:19.588Z,100.00
2019-03-28T04:47:48.579Z,100.00
2019-03-28T04:50:17.515Z,100.00
2019-03-28T04:52:46.530Z,100.00
2019-03-28T04:55:16.115Z,100.00
2019-03-28T04:57:45.029Z,100.00
2019-03-28T05:00:15.450Z,100.00
2019-03-28T05:02:45.999Z,100.00
2019-03-28T05:05:15.196Z,100.00
2019-03-28T05:07:45.679Z,100.00
2019-03-28T05:10:15.346Z,100.00
2019-03-28T05:12:44.855Z,100.00
2019-03-28T05:15:13.991Z,100.00
2019-03-28T05:17:43.868Z,100.00
2019-03-28T05:20:13.373Z,100.00
2019-03-28T05:22:43.047Z,100.00
2019-03-28T05:25:12.040Z,100.00
2019-03-28T05:27:40.984Z,100.00
2019-03-28T05:30:10.672Z,100.00
2019-03-28T05:32:39.618Z,100.00
2019-03-28T05:35:08.670Z,100.00
2019-03-28T05:37:39.185Z,100.00
2019-03-28T05:40:08.691Z,100.00
2019-03-28T05:42:37.753Z,100.00
2019-03-28T05:45:08.388Z,100.00
2019-03-28T05:47:37.467Z,100.00
2019-03-28T05:50:06.579Z,100.00
2019-03-28T05:52:35.755Z,100.00
2019-03-28T05:55:06.591Z,100.00
2019-03-28T05:57:35.540Z,100.00
2019-03-28T06:00:05.889Z,100.00
2019-03-28T06:02:34.944Z,100.00
2019-03-28T06:05:04.265Z,100.00
2019-03-28T06:07:33.203Z,100.00
2019-03-28T06:10:03.134Z,100.00
2019-03-28T06:12:32.054Z,100.00
2019-03-28T06:15:01.303Z,100.00
2019-03-28T06:17:30.241Z,100.00
2019-03-28T06:19:59.179Z,100.00
2019-03-28T06:22:28.242Z,100.00
2019-03-28T06:24:57.307Z,100.00
2019-03-28T06:27:26.383Z,100.00
2019-03-28T06:29:55.779Z,100.00
2019-03-28T06:32:25.158Z,100.00
2019-03-28T06:34:54.279Z,100.00
2019-03-28T06:37:23.203Z,100.00
2019-03-28T06:39:52.202Z,100.00
2019-03-28T06:42:21.148Z,100.00
2019-03-28T06:44:50.200Z,100.00
2019-03-28T06:47:21.041Z,100.00
2019-03-28T06:49:49.994Z,100.00
2019-03-28T06:52:21.117Z,100.00
2019-03-28T06:54:50.133Z,100.00
2019-03-28T06:57:19.223Z,100.00
2019-03-28T06:59:48.142Z,100.00
2019-03-28T07:02:17.404Z,100.00
2019-03-28T07:04:46.773Z,100.00
2019-03-28T07:07:18.302Z,100.00
2019-03-28T07:09:46.696Z,100.00
2019-03-28T07:12:15.604Z,100.00
2019-03-28T07:14:45.662Z,100.00
2019-03-28T07:17:15.463Z,100.00
2019-03-28T07:19:44.471Z,100.00
2019-03-28T07:22:13.476Z,100.00
2019-03-28T07:24:42.399Z,100.00
2019-03-28T07:27:12.382Z,100.00
2019-03-28T07:29:50.668Z,100.00
2019-03-28T07:32:12.255Z,100.00
2019-03-28T07:34:41.273Z,100.00
2019-03-28T07:37:10.249Z,100.00
2019-03-28T07:39:39.259Z,100.00
2019-03-28T07:42:08.559Z,100.00
2019-03-28T07:44:37.751Z,100.00
2019-03-28T07:47:06.720Z,100.00
2019-03-28T07:49:37.559Z,100.00
2019-03-28T07:52:06.507Z,100.00
2019-03-28T07:54:35.553Z,100.00
2019-03-28T07:57:04.929Z,100.00
2019-03-28T07:59:33.854Z,100.00
2019-03-28T08:02:03.099Z,100.00
2019-03-28T08:04:32.070Z,100.00
2019-03-28T08:07:01.950Z,100.00
2019-03-28T08:09:36.558Z,100.00
2019-03-28T08:12:01.974Z,100.00
2019-03-28T08:14:31.063Z,100.00
2019-03-28T08:16:59.966Z,100.00
2019-03-28T08:19:28.948Z,100.00
2019-03-28T08:21:58.187Z,100.00
2019-03-28T08:24:27.248Z,100.00
2019-03-28T08:26:56.303Z,100.00
2019-03-28T08:29:25.203Z,100.00
2019-03-28T08:31:54.687Z,100.00
2019-03-28T08:34:23.706Z,100.00
2019-03-28T08:36:53.765Z,100.00
2019-03-28T08:39:23.605Z,100.00
2019-03-28T08:41:52.561Z,100.00
2019-03-28T08:44:22.843Z,100.00
2019-03-28T08:46:51.963Z,100.00
2019-03-28T08:49:21.111Z,100.00
2019-03-28T08:51:50.085Z,100.00
2019-03-28T08:54:20.046Z,100.00
2019-03-28T08:56:49.074Z,100.00
2019-03-28T08:59:17.985Z,100.00
2019-03-28T09:01:46.947Z,100.00
2019-03-28T09:04:15.783Z,100.00
2019-03-28T09:06:44.739Z,99.26
2019-03-28T09:09:13.807Z,98.96
2019-03-28T09:11:43.012Z,98.90
2019-03-28T09:14:12.244Z,98.05
2019-03-28T09:16:41.285Z,99.13
2019-03-28T09:19:10.237Z,98.97
2019-03-28T09:21:39.192Z,96.33
2019-03-28T09:24:08.262Z,93.65
2019-03-28T09:26:37.386Z,94.48
2019-03-28T09:29:06.363Z,94.62
2019-03-28T09:31:35.841Z,96.28
2019-03-28T09:34:05.150Z,93.98
2019-03-28T09:36:34.207Z,93.20
2019-03-28T09:39:06.203Z,93.08
2019-03-28T09:41:35.413Z,94.91
2019-03-28T09:44:04.390Z,93.95
2019-03-28T09:46:34.124Z,93.11
2019-03-28T09:49:03.467Z,91.91
2019-03-28T09:51:35.138Z,90.93
2019-03-28T09:54:03.415Z,94.99
2019-03-28T09:56:32.431Z,93.19
2019-03-28T09:59:01.440Z,92.09
2019-03-28T10:01:30.465Z,91.98
2019-03-28T10:03:59.545Z,90.78
2019-03-28T10:06:28.446Z,89.55
2019-03-28T10:08:57.423Z,88.91
2019-03-28T10:11:26.485Z,90.20
2019-03-28T10:13:55.482Z,88.48
2019-03-28T10:16:24.344Z,87.66
2019-03-28T10:18:53.388Z,87.52
2019-03-28T10:21:22.352Z,88.02
2019-03-28T10:23:51.347Z,88.85
2019-03-28T10:26:20.391Z,88.44
2019-03-28T10:28:49.323Z,87.51
2019-03-28T10:31:18.376Z,87.20
2019-03-28T10:33:47.543Z,86.40
2019-03-28T10:36:16.545Z,85.46
2019-03-28T10:38:45.579Z,84.33
2019-03-28T10:41:14.641Z,84.23
2019-03-28T10:43:43.581Z,85.05
2019-03-28T10:46:12.642Z,83.90
2019-03-28T10:48:41.613Z,85.35
2019-03-28T10:51:10.551Z,86.62
2019-03-28T10:53:39.500Z,85.50
2019-03-28T10:56:20.964Z,85.46
2019-03-28T10:58:39.371Z,85.21
2019-03-28T11:01:08.855Z,84.28
2019-03-28T11:03:37.873Z,85.26
2019-03-28T11:06:06.828Z,85.79
2019-03-28T11:08:37.657Z,86.85
2019-03-28T11:11:06.697Z,85.94
2019-03-28T11:13:38.602Z,86.00
2019-03-28T11:16:07.613Z,87.90
2019-03-28T11:18:36.580Z,85.58
2019-03-28T11:21:05.639Z,85.46
2019-03-28T11:23:34.780Z,87.08
2019-03-28T11:26:03.767Z,87.27
2019-03-28T11:28:32.792Z,85.42
2019-03-28T11:31:01.693Z,85.84
2019-03-28T11:33:30.928Z,86.50
2019-03-28T11:35:59.928Z,85.22
2019-03-28T11:38:29.043Z,86.48
2019-03-28T11:40:58.213Z,87.65
2019-03-28T11:43:27.090Z,86.76
2019-03-28T11:45:56.176Z,86.50
2019-03-28T11:48:25.178Z,85.83
2019-03-28T11:50:54.123Z,86.38
2019-03-28T11:53:23.130Z,86.48
2019-03-28T11:55:52.091Z,86.87
2019-03-28T11:58:20.998Z,87.39
2019-03-28T12:00:50.714Z,87.54
2019-03-28T12:03:19.694Z,89.33
2019-03-28T12:05:48.631Z,87.10
2019-03-28T12:08:17.650Z,84.33
2019-03-28T12:10:46.862Z,83.68
2019-03-28T12:13:16.329Z,82.51
2019-03-28T12:15:45.407Z,84.68
2019-03-28T12:18:14.414Z,87.08
2019-03-28T12:20:45.538Z,86.78
2019-03-28T12:23:14.619Z,88.70
2019-03-28T12:25:47.219Z,88.48
2019-03-28T12:28:15.262Z,90.74
2019-03-28T12:30:44.171Z,91.86
2019-03-28T12:33:13.409Z,93.44
2019-03-28T12:35:42.677Z,94.62
2019-03-28T12:38:12.085Z,97.25
2019-03-28T12:40:41.093Z,100.00
2019-03-28T12:43:10.053Z,100.00
2019-03-28T12:45:38.998Z,100.00
2019-03-28T12:48:07.959Z,100.00
2019-03-28T12:50:36.884Z,100.00
2019-03-28T12:53:05.848Z,100.00
2019-03-28T12:55:34.794Z,100.00
2019-03-28T12:58:03.751Z,100.00
2019-03-28T13:00:36.715Z,100.00
2019-03-28T13:03:06.085Z,100.00
2019-03-28T13:05:35.495Z,100.00
2019-03-28T13:08:04.660Z,100.00
2019-03-28T13:10:33.646Z,100.00
2019-03-28T13:13:03.817Z,98.41
2019-03-28T13:15:33.340Z,97.58
2019-03-28T13:18:02.358Z,97.32
2019-03-28T13:20:31.413Z,96.10
2019-03-28T13:23:00.351Z,95.16
2019-03-28T13:25:29.402Z,94.08
2019-03-28T13:27:58.390Z,93.54
2019-03-28T13:30:27.882Z,93.68
2019-03-28T13:32:56.798Z,93.06
2019-03-28T13:35:25.727Z,92.89
2019-03-28T13:37:54.624Z,90.78
2019-03-28T13:40:23.693Z,90.53
2019-03-28T13:42:53.138Z,90.41
2019-03-28T13:45:22.182Z,89.17
2019-03-28T13:47:54.189Z,89.03
2019-03-28T13:50:22.015Z,89.54
2019-03-28T13:52:50.996Z,88.47
2019-03-28T13:55:19.996Z,88.34
2019-03-28T13:57:52.009Z,90.31
2019-03-28T14:00:30.276Z,91.83
2019-03-28T14:02:59.593Z,92.19
2019-03-28T14:05:28.505Z,91.08
2019-03-28T14:07:57.424Z,91.68
2019-03-28T14:10:27.224Z,91.11
2019-03-28T14:12:56.134Z,90.98
2019-03-28T14:15:25.124Z,90.38
2019-03-28T14:17:54.015Z,90.10
2019-03-28T14:20:23.624Z,90.09
2019-03-28T14:22:54.031Z,88.58
2019-03-28T14:25:22.983Z,88.77
2019-03-28T14:27:51.913Z,88.68
2019-03-28T14:30:20.862Z,89.15
2019-03-28T14:32:53.540Z,89.68
2019-03-28T14:35:20.713Z,88.93
2019-03-28T14:37:49.649Z,88.80
2019-03-28T14:40:18.652Z,88.85
2019-03-28T14:42:47.586Z,88.00
2019-03-28T14:45:16.471Z,87.20
2019-03-28T14:47:45.435Z,86.88
2019-03-28T14:50:17.437Z,85.93
2019-03-28T14:52:46.515Z,86.37
2019-03-28T14:55:15.413Z,87.45
2019-03-28T14:57:45.060Z,89.05
2019-03-28T15:00:35.204Z,88.55
2019-03-28T15:03:04.121Z,88.51
2019-03-28T15:05:33.209Z,88.20
2019-03-28T15:08:02.104Z,87.98
2019-03-28T15:10:30.992Z,87.82
2019-03-28T15:13:00.041Z,88.26
2019-03-28T15:15:29.316Z,88.22
2019-03-28T15:17:59.020Z,87.74
2019-03-28T15:20:28.014Z,88.13
2019-03-28T15:22:57.564Z,88.97
2019-03-28T15:25:26.664Z,88.12
2019-03-28T15:27:57.473Z,87.11
2019-03-28T15:30:26.481Z,87.94
2019-03-28T15:32:55.381Z,87.27
2019-03-28T15:35:24.340Z,87.72
2019-03-28T15:37:53.342Z,87.67
2019-03-28T15:40:22.296Z,88.18
2019-03-28T15:42:51.316Z,87.81
2019-03-28T15:45:20.268Z,88.03
2019-03-28T15:47:51.947Z,88.72
2019-03-28T15:50:20.470Z,88.98
2019-03-28T15:52:49.413Z,90.40
2019-03-28T15:55:18.348Z,90.17
2019-03-28T15:57:47.293Z,90.46
2019-03-28T16:00:16.859Z,92.02
2019-03-28T16:02:47.580Z,90.98
2019-03-28T16:05:16.652Z,90.90
2019-03-28T16:07:45.715Z,91.06
2019-03-28T16:10:15.702Z,90.97
2019-03-28T16:12:44.707Z,90.99
2019-03-28T16:15:15.005Z,90.64
2019-03-28T16:17:44.021Z,91.05
2019-03-28T16:20:13.237Z,91.75
2019-03-28T16:22:42.250Z,91.29
2019-03-28T16:25:11.593Z,92.12
2019-03-28T16:27:40.498Z,92.09
2019-03-28T16:30:10.964Z,91.31
2019-03-28T16:32:39.939Z,92.29
2019-03-28T16:35:08.958Z,92.47
2019-03-28T16:37:38.310Z,91.65
2019-03-28T16:40:08.742Z,91.39
2019-03-28T16:42:37.773Z,91.10
2019-03-28T16:45:07.363Z,91.83
2019-03-28T16:47:36.209Z,92.20
2019-03-28T16:50:06.588Z,93.03
2019-03-28T16:52:35.803Z,92.55
2019-03-28T16:55:05.120Z,92.47
2019-03-28T16:57:34.505Z,93.12
2019-03-28T17:00:06.452Z,93.18
2019-03-28T17:02:35.351Z,93.96
2019-03-28T17:05:06.104Z,93.49
2019-03-28T17:07:37.176Z,93.46
2019-03-28T17:10:07.063Z,93.10
2019-03-28T17:12:35.982Z,93.52
2019-03-28T17:15:06.531Z,94.42
2019-03-28T17:17:38.297Z,93.92
2019-03-28T17:20:07.434Z,94.13
2019-03-28T17:22:37.418Z,95.13
2019-03-28T17:25:06.627Z,95.60
2019-03-28T17:27:35.832Z,93.92
2019-03-28T17:30:07.201Z,95.81
2019-03-28T17:32:36.869Z,95.86
2019-03-28T17:35:06.494Z,96.06
2019-03-28T17:37:35.497Z,96.00
2019-03-28T17:40:04.992Z,95.47
2019-03-28T17:42:34.261Z,95.57
2019-03-28T17:45:03.499Z,95.43
2019-03-28T17:47:32.359Z,97.07
2019-03-28T17:50:01.614Z,96.22
2019-03-28T17:52:30.641Z,96.00
2019-03-28T17:54:59.887Z,95.83
2019-03-28T17:57:29.125Z,95.58
2019-03-28T17:59:58.021Z,95.63
2019-03-28T18:02:27.088Z,96.03
2019-03-28T18:05:08.611Z,96.63
2019-03-28T18:07:27.690Z,97.14
2019-03-28T18:09:56.641Z,96.64
2019-03-28T18:12:25.533Z,97.20
2019-03-28T18:14:55.134Z,97.83
2019-03-28T18:17:24.145Z,97.89
2019-03-28T18:19:53.283Z,97.28
2019-03-28T18:22:22.457Z,99.27
2019-03-28T18:24:51.417Z,98.09
2019-03-28T18:27:20.946Z,98.54
2019-03-28T18:29:49.883Z,98.73
2019-03-28T18:32:19.046Z,99.76
2019-03-28T18:34:54.474Z,99.17
2019-03-28T18:37:19.176Z,98.89
2019-03-28T18:39:48.244Z,99.71
2019-03-28T18:42:17.165Z,100.00
2019-03-28T18:44:46.077Z,99.75
2019-03-28T18:47:15.302Z,99.63
2019-03-28T18:49:45.237Z,100.00
2019-03-28T18:52:14.303Z,100.00
2019-03-28T18:54:43.490Z,100.00
2019-03-28T18:57:13.721Z,100.00
2019-03-28T18:59:42.721Z,100.00
2019-03-28T19:02:12.198Z,100.00
2019-03-28T19:04:41.255Z,100.00
2019-03-28T19:07:10.581Z,100.00
2019-03-28T19:09:39.555Z,100.00
2019-03-28T19:12:08.477Z,100.00
2019-03-28T19:14:37.531Z,100.00
2019-03-28T19:17:07.169Z,100.00
2019-03-28T19:19:39.461Z,100.00
2019-03-28T19:22:08.158Z,100.00
2019-03-28T19:24:37.166Z,100.00
2019-03-28T19:27:06.141Z,100.00
2019-03-28T19:29:35.055Z,100.00
2019-03-28T19:32:04.064Z,100.00
2019-03-28T19:34:33.232Z,100.00
2019-03-28T19:37:02.593Z,100.00
2019-03-28T19:39:32.913Z,100.00
2019-03-28T19:42:04.542Z,100.00
2019-03-28T19:44:33.040Z,100.00
2019-03-28T19:47:01.940Z,100.00
2019-03-28T19:49:30.819Z,100.00
2019-03-28T19:52:00.114Z,100.00
2019-03-28T19:54:29.297Z,100.00
2019-03-28T19:56:58.625Z,100.00
2019-03-28T19:59:27.926Z,100.00
2019-03-28T20:01:56.929Z,100.00
2019-03-28T20:04:26.403Z,100.00
2019-03-28T20:06:55.343Z,100.00
2019-03-28T20:09:24.462Z,100.00
2019-03-28T20:11:53.559Z,100.00
2019-03-28T20:14:22.615Z,100.00
2019-03-28T20:16:51.879Z,100.00
2019-03-28T20:19:21.239Z,100.00
2019-03-28T20:21:50.526Z,100.00
2019-03-28T20:24:19.532Z,100.00
2019-03-28T20:26:48.454Z,100.00
2019-03-28T20:29:17.425Z,100.00
2019-03-28T20:31:46.372Z,100.00
2019-03-28T20:34:15.277Z,100.00
2019-03-28T20:36:44.489Z,100.00
2019-03-28T20:39:13.860Z,100.00
2019-03-28T20:41:43.310Z,100.00
2019-03-28T20:44:12.239Z,100.00
2019-03-28T20:46:41.239Z,100.00
2019-03-28T20:49:10.109Z,100.00
2019-03-28T20:51:39.035Z,100.00
2019-03-28T20:54:08.017Z,100.00
2019-03-28T20:56:36.926Z,100.00
2019-03-28T20:59:05.950Z,100.00
2019-03-28T21:01:35.172Z,100.00
2019-03-28T21:04:04.127Z,100.00
2019-03-28T21:06:33.958Z,100.00
2019-03-28T21:09:06.938Z,100.00
2019-03-28T21:11:35.929Z,100.00
2019-03-28T21:14:04.817Z,100.00
2019-03-28T21:16:34.007Z,100.00
2019-03-28T21:19:03.021Z,100.00
2019-03-28T21:21:31.913Z,100.00
2019-03-28T21:24:02.491Z,100.00
2019-03-28T21:26:31.491Z,100.00
2019-03-28T21:29:00.410Z,100.00
2019-03-28T21:31:31.450Z,100.00
2019-03-28T21:34:02.313Z,100.00
2019-03-28T21:36:34.003Z,100.00
2019-03-28T21:39:06.267Z,100.00
2019-03-28T21:41:36.176Z,100.00
2019-03-28T21:44:06.118Z,100.00
2019-03-28T21:46:37.895Z,100.00
2019-03-28T21:49:11.602Z,100.00
2019-03-28T21:51:56.366Z,100.00
2019-03-28T21:54:39.051Z,100.00
2019-03-28T21:57:14.460Z,100.00
2019-03-28T21:59:44.639Z,100.00
2019-03-28T22:02:15.067Z,100.00
2019-03-28T22:04:44.856Z,100.00
2019-03-28T22:07:14.977Z,100.00
2019-03-28T22:09:46.430Z,100.00
2019-03-28T22:12:16.215Z,100.00
2019-03-28T22:14:48.280Z,100.00
2019-03-28T22:17:19.275Z,100.00
2019-03-28T22:19:49.390Z,100.00
2019-03-28T22:22:19.384Z,100.00
2019-03-28T22:24:51.924Z,100.00
2019-03-28T22:27:22.690Z,100.00
2019-03-28T22:29:53.171Z,100.00
2019-03-28T22:32:23.018Z,100.00
2019-03-28T22:34:52.532Z,100.00
2019-03-28T22:37:21.605Z,100.00
2019-03-28T22:39:50.658Z,100.00
2019-03-28T22:42:21.550Z,100.00
2019-03-28T22:44:51.174Z,100.00
2019-03-28T22:47:20.520Z,100.00
2019-03-28T22:49:49.634Z,100.00
2019-03-28T22:52:19.373Z,100.00
2019-03-28T22:54:48.488Z,100.00
2019-03-28T22:57:17.943Z,100.00
2019-03-28T22:59:46.914Z,100.00
2019-03-28T23:02:16.511Z,100.00
2019-03-28T23:04:45.816Z,100.00
2019-03-28T23:07:14.863Z,100.00
2019-03-28T23:09:43.765Z,100.00
2019-03-28T23:12:12.688Z,100.00
2019-03-28T23:14:42.013Z,100.00
2019-03-28T23:17:10.947Z,100.00
2019-03-28T23:19:39.895Z,100.00
2019-03-28T23:22:08.809Z,100.00
2019-03-28T23:24:39.134Z,100.00
2019-03-28T23:27:08.347Z,100.00
2019-03-28T23:29:37.328Z,100.00
2019-03-28T23:32:06.493Z,100.00
2019-03-28T23:34:35.481Z,100.00
2019-03-28T23:37:04.578Z,100.00
2019-03-28T23:39:33.635Z,100.00
2019-03-28T23:42:02.525Z,100.00
2019-03-28T23:44:31.528Z,100.00
2019-03-28T23:47:00.420Z,100.00
2019-03-28T23:49:29.587Z,100.00
2019-03-28T23:51:58.791Z,100.00
2019-03-28T23:54:27.747Z,100.00
2019-03-28T23:56:56.696Z,100.00
2019-03-28T23:59:25.989Z,100.00
